createdAt,value
2023-09-21T00:02:14.206Z,98110.81
2023-09-21T00:04:44.833Z,98110.81
2023-09-21T00:07:17.003Z,98105.16
2023-09-21T00:09:48.163Z,98078.78
2023-09-21T00:12:15.288Z,98102.91
2023-09-21T00:14:43.545Z,98096.88
2023-09-21T00:17:13.779Z,98102.00
2023-09-21T00:19:46.744Z,98084.97
2023-09-21T00:22:17.139Z,98090.78
2023-09-21T00:24:56.776Z,98084.50
2023-09-21T00:27:24.311Z,98077.16
2023-09-21T00:29:51.825Z,98084.50
2023-09-21T00:32:19.339Z,98076.63
2023-09-21T00:34:46.339Z,98073.22
2023-09-21T00:37:18.832Z,98063.75
2023-09-21T00:39:48.246Z,98070.66
2023-09-21T00:42:18.891Z,98054.59
2023-09-21T00:44:46.736Z,98064.94
2023-09-21T00:47:15.910Z,98061.56
2023-09-21T00:49:46.238Z,98063.13
2023-09-21T00:52:16.134Z,98057.41
2023-09-21T00:57:36.517Z,98055.28
2023-09-21T01:00:11.601Z,98056.38
2023-09-21T01:02:39.407Z,98046.13
2023-09-21T01:05:07.501Z,98055.22
2023-09-21T01:07:37.312Z,98048.69
2023-09-21T01:10:07.954Z,98037.41
2023-09-21T01:12:41.222Z,98054.75
2023-09-21T01:15:11.533Z,98051.00
2023-09-21T01:17:46.614Z,98045.75
2023-09-21T01:20:23.599Z,98037.91
2023-09-21T01:23:12.624Z,98042.91
2023-09-21T01:25:43.832Z,98041.72
2023-09-21T01:28:14.930Z,98030.19
2023-09-21T01:30:41.910Z,98031.81
2023-09-21T01:33:13.106Z,98041.59
2023-09-21T01:35:40.623Z,98047.56
2023-09-21T01:38:08.181Z,98037.38
2023-09-21T01:40:38.608Z,98033.75
2023-09-21T01:43:07.746Z,98037.75
2023-09-21T01:45:44.306Z,98027.72
2023-09-21T01:48:12.686Z,98020.38
2023-09-21T01:50:41.935Z,98014.69
2023-09-21T01:53:10.867Z,98015.53
2023-09-21T01:55:38.901Z,98016.53
2023-09-21T01:58:06.902Z,98017.16
2023-09-21T02:00:37.265Z,98013.94
2023-09-21T02:03:07.665Z,98013.59
2023-09-21T02:05:37.851Z,98010.97
2023-09-21T02:08:05.941Z,98014.81
2023-09-21T02:10:37.308Z,98010.72
2023-09-21T02:13:07.527Z,98011.78
2023-09-21T02:15:40.218Z,98008.28
2023-09-21T02:18:11.159Z,98006.81
2023-09-21T02:20:54.882Z,98007.09
2023-09-21T02:23:22.501Z,98010.03
2023-09-21T02:25:49.454Z,98001.84
2023-09-21T02:28:16.312Z,98001.50
2023-09-21T02:30:47.795Z,98002.78
2023-09-21T02:33:17.720Z,97995.22
2023-09-21T02:35:46.114Z,97992.19
2023-09-21T02:38:13.498Z,97987.91
2023-09-21T02:40:42.184Z,97991.03
2023-09-21T02:43:12.109Z,97988.75
2023-09-21T02:45:39.501Z,97991.88
2023-09-21T02:48:08.073Z,97983.59
2023-09-21T02:50:35.708Z,97978.56
2023-09-21T02:53:10.694Z,97984.53
2023-09-21T02:55:39.416Z,97981.38
2023-09-21T02:58:12.521Z,97975.19
2023-09-21T03:00:44.331Z,97981.28
2023-09-21T03:03:14.240Z,97969.13
2023-09-21T03:05:42.646Z,97976.19
2023-09-21T03:08:15.957Z,97973.13
2023-09-21T03:10:46.830Z,97962.59
2023-09-21T03:13:21.518Z,97968.53
2023-09-21T03:16:00.489Z,97961.13
2023-09-21T03:18:29.470Z,97962.44
2023-09-21T03:20:56.996Z,97960.84
2023-09-21T03:23:24.392Z,97960.94
2023-09-21T03:25:51.891Z,97955.41
2023-09-21T03:28:20.304Z,97964.13
2023-09-21T03:30:49.047Z,97962.31
2023-09-21T03:33:17.444Z,97961.84
2023-09-21T03:35:45.036Z,97960.91
2023-09-21T03:38:15.405Z,97958.13
2023-09-21T03:40:43.355Z,97956.44
2023-09-21T03:43:14.560Z,97962.41
2023-09-21T03:45:43.302Z,97958.44
2023-09-21T03:48:11.247Z,97955.88
2023-09-21T03:50:39.252Z,97957.34
2023-09-21T03:53:06.541Z,97957.97
2023-09-21T03:55:34.142Z,97954.81
2023-09-21T03:58:01.812Z,97939.16
2023-09-21T04:00:38.668Z,97952.13
2023-09-21T04:03:10.921Z,97948.34
2023-09-21T04:05:39.197Z,97943.09
2023-09-21T04:08:06.584Z,97933.47
2023-09-21T04:10:33.806Z,97930.94
2023-09-21T04:13:01.169Z,97921.41
2023-09-21T04:15:29.772Z,97918.28
2023-09-21T04:17:58.272Z,97916.81
2023-09-21T04:20:25.465Z,97904.75
2023-09-21T04:22:53.631Z,97911.28
2023-09-21T04:25:20.488Z,97912.13
2023-09-21T04:27:51.555Z,97911.16
2023-09-21T04:30:20.080Z,97912.94
2023-09-21T04:32:48.139Z,97905.69
2023-09-21T04:35:16.675Z,97900.44
2023-09-21T04:37:47.824Z,97898.19
2023-09-21T04:40:15.313Z,97904.75
2023-09-21T04:42:49.238Z,97905.41
2023-09-21T04:45:20.239Z,97890.97
2023-09-21T04:47:50.567Z,97916.53
2023-09-21T04:50:18.940Z,97896.75
2023-09-21T04:52:49.738Z,97903.28
2023-09-21T04:55:20.447Z,97908.03
2023-09-21T04:57:47.912Z,97900.31
2023-09-21T05:00:17.534Z,97897.38
2023-09-21T05:02:45.307Z,97899.66
2023-09-21T05:05:14.833Z,97896.22
2023-09-21T05:07:42.056Z,97897.56
2023-09-21T05:10:13.953Z,97900.19
2023-09-21T05:12:44.238Z,97894.88
2023-09-21T05:15:16.537Z,97894.28
2023-09-21T05:17:43.820Z,97892.47
2023-09-21T05:20:11.499Z,97899.53
2023-09-21T05:22:41.953Z,97896.56
2023-09-21T05:25:09.334Z,97892.94
2023-09-21T05:27:37.775Z,97906.03
2023-09-21T05:30:10.862Z,97901.94
2023-09-21T05:32:39.236Z,97899.47
2023-09-21T05:35:08.008Z,97898.69
2023-09-21T05:37:37.789Z,97891.44
2023-09-21T05:40:09.065Z,97902.78
2023-09-21T05:42:36.565Z,97886.94
2023-09-21T05:45:04.855Z,97886.47
2023-09-21T05:47:32.328Z,97886.41
2023-09-21T05:49:59.590Z,97876.88
2023-09-21T05:52:27.460Z,97885.84
2023-09-21T05:54:54.406Z,97889.31
2023-09-21T05:57:23.088Z,97889.63
2023-09-21T05:59:51.827Z,97887.31
2023-09-21T06:02:18.859Z,97894.00
2023-09-21T06:04:46.033Z,97887.75
2023-09-21T06:07:13.161Z,97894.59
2023-09-21T06:09:40.861Z,97891.25
2023-09-21T06:12:09.062Z,97887.28
2023-09-21T06:14:37.869Z,97892.16
2023-09-21T06:17:07.307Z,97898.63
2023-09-21T06:19:34.788Z,97901.94
2023-09-21T06:22:02.338Z,97893.16
2023-09-21T06:24:29.319Z,97892.09
2023-09-21T06:26:56.514Z,97886.72
2023-09-21T06:29:24.515Z,97877.09
2023-09-21T06:34:26.772Z,97895.25
2023-09-21T06:36:54.611Z,97885.63
2023-09-21T06:39:22.898Z,97868.84
2023-09-21T06:41:50.184Z,97874.13
2023-09-21T06:44:19.834Z,97869.00
2023-09-21T06:46:47.502Z,97870.53
2023-09-21T06:49:14.871Z,97874.44
2023-09-21T06:51:41.994Z,97865.97
2023-09-21T06:54:09.110Z,97871.94
2023-09-21T06:56:36.232Z,97864.78
2023-09-21T06:59:07.463Z,97864.22
2023-09-21T07:01:35.984Z,97855.00
2023-09-21T07:04:04.657Z,97866.31
2023-09-21T07:06:32.477Z,97869.44
2023-09-21T07:09:00.971Z,97869.09
2023-09-21T07:11:27.975Z,97865.16
2023-09-21T07:13:55.454Z,97860.56
2023-09-21T07:16:23.719Z,97865.19
2023-09-21T07:18:51.029Z,97872.59
2023-09-21T07:21:18.146Z,97853.94
2023-09-21T07:23:45.575Z,97873.53
2023-09-21T07:26:12.613Z,97859.72
2023-09-21T07:28:39.631Z,97857.41
2023-09-21T07:31:06.715Z,97863.66
2023-09-21T07:33:36.952Z,97861.03
2023-09-21T07:36:04.158Z,97863.91
2023-09-21T07:38:31.542Z,97864.91
2023-09-21T07:40:58.961Z,97864.13
2023-09-21T07:43:25.934Z,97856.88
2023-09-21T07:45:55.099Z,97853.84
2023-09-21T07:48:24.734Z,97857.94
2023-09-21T07:50:51.744Z,97854.78
2023-09-21T07:53:20.666Z,97844.69
2023-09-21T07:55:47.690Z,97846.56
2023-09-21T07:58:14.714Z,97857.81
2023-09-21T08:00:41.735Z,97849.91
2023-09-21T08:03:08.918Z,97844.06
2023-09-21T08:05:36.139Z,97836.56
2023-09-21T08:08:03.444Z,97842.09
2023-09-21T08:10:33.790Z,97827.47
2023-09-21T08:13:02.696Z,97832.19
2023-09-21T08:15:29.870Z,97831.59
2023-09-21T08:17:58.454Z,97821.25
2023-09-21T08:20:25.636Z,97842.22
2023-09-21T08:22:52.534Z,97829.78
2023-09-21T08:25:19.587Z,97833.69
2023-09-21T08:27:47.490Z,97838.41
2023-09-21T08:30:14.557Z,97831.50
2023-09-21T08:32:41.653Z,97823.44
2023-09-21T08:35:09.924Z,97832.00
2023-09-21T08:37:38.255Z,97837.31
2023-09-21T08:40:08.087Z,97832.66
2023-09-21T08:42:37.593Z,97819.00
2023-09-21T08:45:09.738Z,97815.97
2023-09-21T08:47:39.996Z,97827.16
2023-09-21T08:50:09.254Z,97838.78
2023-09-21T08:52:36.909Z,97830.66
2023-09-21T08:55:04.321Z,97832.88
2023-09-21T08:57:32.919Z,97831.03
2023-09-21T09:00:08.050Z,97824.91
2023-09-21T09:02:37.030Z,97836.34
2023-09-21T09:05:08.777Z,97827.56
2023-09-21T09:07:43.351Z,97823.09
2023-09-21T09:10:14.754Z,97824.50
2023-09-21T09:12:43.030Z,97813.47
2023-09-21T09:15:11.687Z,97821.22
2023-09-21T09:17:39.085Z,97817.94
2023-09-21T09:20:07.606Z,97821.81
2023-09-21T09:22:38.315Z,97813.22
2023-09-21T09:25:06.956Z,97825.59
2023-09-21T09:27:36.275Z,97810.91
2023-09-21T09:30:10.787Z,97809.63
2023-09-21T09:32:45.798Z,97794.94
2023-09-21T09:35:15.854Z,97804.28
2023-09-21T09:37:44.157Z,97803.44
2023-09-21T09:40:20.484Z,97801.97
2023-09-21T09:42:50.613Z,97789.69
2023-09-21T09:45:23.075Z,97788.59
2023-09-21T09:47:57.888Z,97784.84
2023-09-21T09:50:26.274Z,97779.06
2023-09-21T09:53:02.575Z,97774.50
2023-09-21T09:55:33.114Z,97769.97
2023-09-21T09:58:01.575Z,97769.03
2023-09-21T10:00:29.380Z,97771.47
2023-09-21T10:02:58.683Z,97759.53
2023-09-21T10:05:27.767Z,97759.66
2023-09-21T10:07:57.326Z,97764.25
2023-09-21T10:10:26.002Z,97754.44
2023-09-21T10:12:53.771Z,97748.78
2023-09-21T10:15:24.026Z,97758.66
2023-09-21T10:17:52.371Z,97753.50
2023-09-21T10:20:26.673Z,97746.47
2023-09-21T10:22:59.758Z,97745.72
2023-09-21T10:25:45.725Z,97739.97
2023-09-21T10:28:23.971Z,97731.44
2023-09-21T10:30:53.992Z,97740.06
2023-09-21T10:33:21.520Z,97735.44
2023-09-21T10:35:51.147Z,97723.69
2023-09-21T10:38:19.225Z,97732.06
2023-09-21T10:40:46.423Z,97717.59
2023-09-21T10:43:58.822Z,97725.06
2023-09-21T10:46:28.531Z,97719.59
2023-09-21T10:49:12.967Z,97722.38
2023-09-21T10:51:42.752Z,97716.84
2023-09-21T10:54:12.418Z,97716.03
2023-09-21T10:56:39.446Z,97719.38
2023-09-21T10:59:08.436Z,97718.72
2023-09-21T11:01:36.814Z,97707.03
2023-09-21T11:04:04.603Z,97711.88
2023-09-21T11:06:31.982Z,97699.94
2023-09-21T11:08:59.034Z,97688.59
2023-09-21T11:11:26.837Z,97697.06
2023-09-21T11:13:53.996Z,97701.13
2023-09-21T11:16:22.781Z,97693.94
2023-09-21T11:18:49.893Z,97687.22
2023-09-21T11:21:18.468Z,97683.19
2023-09-21T11:23:45.565Z,97676.13
2023-09-21T11:26:13.140Z,97665.81
2023-09-21T11:28:41.652Z,97670.91
2023-09-21T11:31:11.740Z,97667.81
2023-09-21T11:33:38.655Z,97666.63
2023-09-21T11:36:08.559Z,97663.94
2023-09-21T11:38:37.724Z,97658.59
2023-09-21T11:41:06.131Z,97661.25
2023-09-21T11:43:33.603Z,97644.91
2023-09-21T11:46:04.906Z,97645.84
2023-09-21T11:48:34.993Z,97653.00
2023-09-21T11:51:06.893Z,97658.78
2023-09-21T11:53:34.101Z,97658.44
2023-09-21T11:56:02.583Z,97657.28
2023-09-21T11:58:34.785Z,97654.50
2023-09-21T12:01:07.633Z,97637.94
2023-09-21T12:03:35.506Z,97646.94
2023-09-21T12:06:05.500Z,97634.88
2023-09-21T12:08:33.492Z,97634.16
2023-09-21T12:11:00.808Z,97639.28
2023-09-21T12:13:28.054Z,97636.84
2023-09-21T12:15:59.595Z,97635.66
2023-09-21T12:18:28.560Z,97634.38
2023-09-21T12:20:59.115Z,97621.25
2023-09-21T12:23:26.759Z,97633.41
2023-09-21T12:25:54.896Z,97623.31
2023-09-21T12:28:22.202Z,97619.84
2023-09-21T12:30:50.335Z,97612.41
2023-09-21T12:33:34.889Z,97614.59
2023-09-21T12:36:06.556Z,97595.59
2023-09-21T12:38:34.714Z,97597.53
2023-09-21T12:41:01.989Z,97594.00
2023-09-21T12:43:30.322Z,97596.69
2023-09-21T12:45:57.761Z,97595.56
2023-09-21T12:48:24.891Z,97591.13
2023-09-21T12:50:52.482Z,97597.13
2023-09-21T12:53:20.285Z,97597.53
2023-09-21T12:55:47.459Z,97596.94
2023-09-21T12:58:14.639Z,97598.91
2023-09-21T13:00:47.002Z,97598.00
2023-09-21T13:03:15.040Z,97591.06
2023-09-21T13:05:45.230Z,97591.59
2023-09-21T13:08:17.665Z,97595.25
2023-09-21T13:10:47.435Z,97592.56
2023-09-21T13:13:15.061Z,97585.88
2023-09-21T13:15:41.968Z,97585.63
2023-09-21T13:18:09.835Z,97583.44
2023-09-21T13:20:36.857Z,97569.44
2023-09-21T13:23:06.605Z,97563.03
2023-09-21T13:25:33.826Z,97562.00
2023-09-21T13:28:00.809Z,97546.78
2023-09-21T13:30:28.003Z,97550.28
2023-09-21T13:32:55.052Z,97539.19
2023-09-21T13:35:22.216Z,97549.09
2023-09-21T13:37:48.996Z,97543.56
2023-09-21T13:40:16.128Z,97543.22
2023-09-21T13:42:43.257Z,97526.75
2023-09-21T13:45:13.153Z,97517.75
2023-09-21T13:47:41.157Z,97517.00
2023-09-21T13:50:09.728Z,97524.88
2023-09-21T13:52:38.240Z,97511.19
2023-09-21T13:55:17.063Z,97520.88
2023-09-21T13:57:46.894Z,97498.63
2023-09-21T14:00:15.224Z,97499.31
2023-09-21T14:02:46.212Z,97495.72
2023-09-21T14:05:13.648Z,97489.09
2023-09-21T14:07:40.959Z,97498.59
2023-09-21T14:10:08.611Z,97489.84
2023-09-21T14:12:35.727Z,97491.47
2023-09-21T14:15:02.822Z,97487.75
2023-09-21T14:17:30.581Z,97502.53
2023-09-21T14:20:06.729Z,97488.72
2023-09-21T14:22:38.706Z,97485.50
2023-09-21T14:25:15.134Z,97477.41
2023-09-21T14:27:45.954Z,97481.56
2023-09-21T14:30:25.028Z,97480.09
2023-09-21T14:33:01.731Z,97477.66
2023-09-21T14:35:37.725Z,97469.56
2023-09-21T14:38:12.893Z,97458.41
2023-09-21T14:40:45.963Z,97451.09
2023-09-21T14:43:29.760Z,97450.00
2023-09-21T14:45:58.840Z,97436.53
2023-09-21T14:48:29.670Z,97447.44
2023-09-21T14:51:07.928Z,97446.41
2023-09-21T14:53:40.433Z,97451.47
2023-09-21T14:56:10.895Z,97442.69
2023-09-21T14:58:49.788Z,97445.34
2023-09-21T15:01:17.742Z,97430.38
2023-09-21T15:04:30.214Z,97432.59
2023-09-21T15:07:06.381Z,97420.50
2023-09-21T15:13:10.980Z,97419.97
2023-09-21T15:15:48.328Z,97410.09
2023-09-21T15:18:56.840Z,97405.28
2023-09-21T15:21:24.204Z,97404.84
2023-09-21T15:23:54.139Z,97399.75
2023-09-21T15:26:21.967Z,97393.06
2023-09-21T15:28:48.923Z,97393.56
2023-09-21T15:31:18.217Z,97392.25
2023-09-21T15:33:48.499Z,97400.34
2023-09-21T15:36:20.825Z,97393.63
2023-09-21T15:38:53.936Z,97398.41
2023-09-21T15:41:21.815Z,97394.88
2023-09-21T15:43:56.110Z,97396.25
2023-09-21T15:46:27.258Z,97391.97
2023-09-21T15:49:07.502Z,97383.97
2023-09-21T15:51:35.090Z,97383.63
2023-09-21T15:54:02.998Z,97375.59
2023-09-21T15:57:05.215Z,97369.69
2023-09-21T16:03:00.197Z,97365.75
2023-09-21T16:05:34.443Z,97361.97
2023-09-21T16:08:20.060Z,97365.09
2023-09-21T16:10:51.221Z,97354.41
2023-09-21T16:13:18.775Z,97353.81
2023-09-21T16:15:54.603Z,97363.44
2023-09-21T16:18:28.354Z,97351.06
2023-09-21T16:20:56.197Z,97343.78
2023-09-21T16:23:32.617Z,97336.47
2023-09-21T16:26:17.501Z,97348.16
2023-09-21T16:33:10.236Z,97346.88
2023-09-21T16:39:05.568Z,97340.41
2023-09-21T16:41:33.136Z,97333.50
2023-09-21T16:44:18.473Z,97330.31
2023-09-21T16:46:55.420Z,97331.63
2023-09-21T16:52:12.743Z,97319.41
2023-09-21T16:54:49.038Z,97318.94
2023-09-21T16:57:29.889Z,97312.25
2023-09-21T17:00:02.890Z,97305.22
2023-09-21T17:02:40.824Z,97313.16
2023-09-21T17:05:13.908Z,97309.97
2023-09-21T17:07:41.978Z,97301.84
2023-09-21T17:10:13.386Z,97307.19
2023-09-21T17:12:43.651Z,97302.81
2023-09-21T17:15:22.841Z,97280.22
2023-09-21T17:17:57.144Z,97289.75
2023-09-21T17:20:27.706Z,97296.22
2023-09-21T17:23:01.712Z,97272.00
2023-09-21T17:25:32.057Z,97292.97
2023-09-21T17:28:20.460Z,97292.97
2023-09-21T17:30:48.240Z,97277.31
2023-09-21T17:33:42.748Z,97281.81
2023-09-21T17:36:17.390Z,97267.91
2023-09-21T17:38:45.294Z,97276.47
2023-09-21T17:41:15.262Z,97283.59
2023-09-21T17:43:42.962Z,97291.69
2023-09-21T17:46:14.966Z,97295.63
2023-09-21T17:48:51.402Z,97284.38
2023-09-21T17:51:18.878Z,97290.06
2023-09-21T17:53:46.130Z,97280.34
2023-09-21T17:56:22.544Z,97283.59
2023-09-21T17:58:55.702Z,97263.72
2023-09-21T18:01:27.555Z,97278.97
2023-09-21T18:03:57.953Z,97277.03
2023-09-21T18:06:25.470Z,97283.97
2023-09-21T18:08:54.514Z,97283.41
2023-09-21T18:11:26.921Z,97282.88
2023-09-21T18:13:57.012Z,97279.84
2023-09-21T18:16:26.617Z,97268.31
2023-09-21T18:18:54.500Z,97263.22
2023-09-21T18:21:34.288Z,97265.66
2023-09-21T18:24:01.482Z,97270.91
2023-09-21T18:26:31.407Z,97271.38
2023-09-21T18:29:03.784Z,97270.00
2023-09-21T18:31:44.176Z,97265.94
2023-09-21T18:34:11.196Z,97268.06
2023-09-21T18:36:43.104Z,97263.69
2023-09-21T18:39:10.156Z,97258.84
2023-09-21T18:41:37.479Z,97255.94
2023-09-21T18:44:08.214Z,97262.00
2023-09-21T18:46:43.555Z,97256.25
2023-09-21T18:49:16.457Z,97248.19
2023-09-21T18:51:50.288Z,97240.94
2023-09-21T18:54:20.375Z,97249.16
2023-09-21T18:57:01.109Z,97245.34
2023-09-21T18:59:35.731Z,97233.00
2023-09-21T19:02:03.459Z,97241.75
2023-09-21T19:04:33.449Z,97234.00
2023-09-21T19:07:00.633Z,97230.84
2023-09-21T19:09:50.505Z,97237.19
2023-09-21T19:12:17.855Z,97224.06
2023-09-21T19:14:55.407Z,97212.59
2023-09-21T19:17:31.537Z,97209.25
2023-09-21T19:20:04.271Z,97199.88
2023-09-21T19:22:38.517Z,97207.66
2023-09-21T19:25:09.935Z,97212.72
2023-09-21T19:27:43.226Z,97213.75
2023-09-21T19:30:11.961Z,97208.75
2023-09-21T19:32:45.219Z,97196.63
2023-09-21T19:35:12.514Z,97200.34
2023-09-21T19:37:41.518Z,97194.03
2023-09-21T19:40:38.902Z,97204.69
2023-09-21T19:43:12.217Z,97176.28
2023-09-21T19:45:45.579Z,97186.06
2023-09-21T19:48:13.052Z,97178.22
2023-09-21T19:50:40.877Z,97181.28
2023-09-21T19:53:12.256Z,97181.00
2023-09-21T19:55:39.410Z,97173.75
2023-09-21T19:58:07.511Z,97176.19
2023-09-21T20:00:38.013Z,97174.94
2023-09-21T20:03:11.073Z,97188.78
2023-09-21T20:05:45.854Z,97231.16
2023-09-21T20:08:18.233Z,97202.38
2023-09-21T20:10:58.516Z,97232.25
2023-09-21T20:13:33.095Z,97248.03
2023-09-21T20:16:00.715Z,97251.94
2023-09-21T20:18:29.215Z,97246.03
2023-09-21T20:20:56.576Z,97234.97
2023-09-21T20:26:09.244Z,97241.91
2023-09-21T20:28:36.478Z,97246.44
2023-09-21T20:31:03.568Z,97256.06
2023-09-21T20:33:33.188Z,97263.22
2023-09-21T20:36:00.402Z,97277.41
2023-09-21T20:38:27.761Z,97304.44
2023-09-21T20:40:54.990Z,97309.25
2023-09-21T20:43:24.581Z,97300.72
2023-09-21T20:45:51.876Z,97316.03
2023-09-21T20:48:19.211Z,97341.13
2023-09-21T20:50:46.674Z,97368.03
2023-09-21T20:53:14.423Z,97380.06
2023-09-21T20:55:42.125Z,97398.91
2023-09-21T20:58:09.202Z,97454.03
2023-09-21T21:00:38.671Z,97432.81
2023-09-21T21:03:06.061Z,97422.22
2023-09-21T21:05:33.201Z,97421.94
2023-09-21T21:08:00.518Z,97426.38
2023-09-21T21:10:27.976Z,97424.59
2023-09-21T21:12:55.196Z,97432.44
2023-09-21T21:15:22.516Z,97444.41
2023-09-21T21:17:49.677Z,97451.03
2023-09-21T21:20:19.824Z,97455.03
2023-09-21T21:22:49.770Z,97436.19
2023-09-21T21:25:17.389Z,97429.19
2023-09-21T21:27:44.950Z,97441.34
2023-09-21T21:30:17.022Z,97454.88
2023-09-21T21:32:47.421Z,97448.59
2023-09-21T21:35:21.199Z,97447.50
2023-09-21T21:37:51.330Z,97444.41
2023-09-21T21:40:18.506Z,97447.34
2023-09-21T21:42:46.629Z,97425.97
2023-09-21T21:45:14.003Z,97422.56
2023-09-21T21:47:42.652Z,97396.38
2023-09-21T21:50:18.289Z,97424.88
2023-09-21T21:52:45.317Z,97432.16
2023-09-21T21:55:12.192Z,97432.97
2023-09-21T21:57:41.429Z,97442.34
2023-09-21T22:00:14.634Z,97434.81
2023-09-21T22:02:41.846Z,97421.16
2023-09-21T22:05:11.103Z,97416.22
2023-09-21T22:07:38.154Z,97413.00
2023-09-21T22:10:06.909Z,97412.44
2023-09-21T22:12:35.987Z,97415.56
2023-09-21T22:15:04.097Z,97428.91
2023-09-21T22:17:33.333Z,97421.50
2023-09-21T22:20:02.364Z,97413.44
2023-09-21T22:22:29.587Z,97429.34
2023-09-21T22:24:56.509Z,97433.28
2023-09-21T22:27:23.834Z,97422.72
2023-09-21T22:29:51.262Z,97428.63
2023-09-21T22:32:18.319Z,97430.25
2023-09-21T22:34:45.470Z,97433.50
2023-09-21T22:37:13.662Z,97429.66
2023-09-21T22:39:47.134Z,97440.09
2023-09-21T22:42:17.683Z,97424.25
2023-09-21T22:44:45.002Z,97426.25
2023-09-21T22:47:12.461Z,97428.66
2023-09-21T22:49:41.173Z,97432.34
2023-09-21T22:52:14.142Z,97432.00
2023-09-21T22:54:41.270Z,97447.91
2023-09-21T22:57:08.476Z,97446.72
2023-09-21T22:59:41.492Z,97459.63
2023-09-21T23:02:09.393Z,97454.97
2023-09-21T23:04:36.874Z,97449.47
2023-09-21T23:07:04.274Z,97448.22
2023-09-21T23:09:32.050Z,97448.06
2023-09-21T23:12:00.651Z,97452.47
2023-09-21T23:14:27.880Z,97463.22
2023-09-21T23:16:56.275Z,97461.75
2023-09-21T23:19:23.598Z,97454.00
2023-09-21T23:21:51.584Z,97463.97
2023-09-21T23:24:19.124Z,97459.97
2023-09-21T23:26:47.428Z,97467.63
2023-09-21T23:29:16.237Z,97466.84
2023-09-21T23:31:46.823Z,97472.78
2023-09-21T23:34:14.211Z,97469.75
2023-09-21T23:36:41.626Z,97478.97
2023-09-21T23:39:15.294Z,97477.97
2023-09-21T23:41:47.325Z,97483.69
2023-09-21T23:44:20.294Z,97471.00
2023-09-21T23:46:47.563Z,97472.66
2023-09-21T23:49:20.799Z,97470.44
2023-09-21T23:51:48.504Z,97475.16
2023-09-21T23:54:15.866Z,97477.97
2023-09-21T23:56:43.118Z,97487.09
2023-09-21T23:59:10.201Z,97486.50
